sensor_id;sensor_type;location;lat;lon;timestamp;pressure;altitude;pressure_sealevel;temperature;humidity
42067;BME280;27734;47.028;28.820;2023-07-22T00:01:34;100189.14;;;23.75;50.43
42067;BME280;27734;47.028;28.820;2023-07-22T00:04:03;100203.44;;;23.74;51.18
42067;BME280;27734;47.028;28.820;2023-07-22T00:06:31;100208.80;;;23.74;51.90
42067;BME280;27734;47.028;28.820;2023-07-22T00:09:00;100215.03;;;23.75;51.97
42067;BME280;27734;47.028;28.820;2023-07-22T00:11:28;100197.18;;;23.75;52.22
42067;BME280;27734;47.028;28.820;2023-07-22T00:13:57;100205.22;;;23.75;52.85
42067;BME280;27734;47.028;28.820;2023-07-22T00:16:26;100202.58;;;23.74;53.06
42067;BME280;27734;47.028;28.820;2023-07-22T00:18:57;100201.63;;;23.75;52.99
42067;BME280;27734;47.028;28.820;2023-07-22T00:21:25;100197.25;;;23.72;53.13
42067;BME280;27734;47.028;28.820;2023-07-22T00:23:54;100203.44;;;23.74;53.06
42067;BME280;27734;47.028;28.820;2023-07-22T00:26:23;100196.31;;;23.73;53.75
42067;BME280;27734;47.028;28.820;2023-07-22T00:28:51;100186.57;;;23.71;54.18
42067;BME280;27734;47.028;28.820;2023-07-22T00:31:20;100173.18;;;23.71;54.39
42067;BME280;27734;47.028;28.820;2023-07-22T00:33:49;100172.31;;;23.70;54.27
42067;BME280;27734;47.028;28.820;2023-07-22T00:36:18;100166.95;;;23.70;54.50
42067;BME280;27734;47.028;28.820;2023-07-22T00:38:46;100160.66;;;23.71;54.80
42067;BME280;27734;47.028;28.820;2023-07-22T00:41:15;100158.84;;;23.72;54.71
42067;BME280;27734;47.028;28.820;2023-07-22T00:43:43;100159.78;;;23.71;54.70
42067;BME280;27734;47.028;28.820;2023-07-22T00:46:12;100153.48;;;23.72;55.41
42067;BME280;27734;47.028;28.820;2023-07-22T00:48:42;100152.63;;;23.71;54.93
42067;BME280;27734;47.028;28.820;2023-07-22T00:51:10;100138.28;;;23.74;54.78
42067;BME280;27734;47.028;28.820;2023-07-22T00:53:39;100130.25;;;23.74;55.37
42067;BME280;27734;47.028;28.820;2023-07-22T00:56:08;100131.12;;;23.74;55.17
42067;BME280;27734;47.028;28.820;2023-07-22T00:58:36;100128.44;;;23.74;55.25
42067;BME280;27734;47.028;28.820;2023-07-22T01:01:05;100116.81;;;23.75;55.25
42067;BME280;27734;47.028;28.820;2023-07-22T01:03:33;100116.78;;;23.77;55.48
42067;BME280;27734;47.028;28.820;2023-07-22T01:06:03;100114.10;;;23.77;55.97
42067;BME280;27734;47.028;28.820;2023-07-22T01:08:34;100111.42;;;23.77;55.50
42067;BME280;27734;47.028;28.820;2023-07-22T01:11:03;100113.20;;;23.76;55.52
42067;BME280;27734;47.028;28.820;2023-07-22T01:13:32;100119.45;;;23.77;55.69
42067;BME280;27734;47.028;28.820;2023-07-22T01:16:00;100120.36;;;23.76;55.85
42067;BME280;27734;47.028;28.820;2023-07-22T01:18:29;100129.27;;;23.76;55.89
42067;BME280;27734;47.028;28.820;2023-07-22T01:20:58;100136.44;;;23.76;55.82
42067;BME280;27734;47.028;28.820;2023-07-22T01:23:27;100146.28;;;23.75;56.12
42067;BME280;27734;47.028;28.820;2023-07-22T01:25:56;100146.32;;;23.74;56.40
42067;BME280;27734;47.028;28.820;2023-07-22T01:28:26;100141.87;;;23.73;56.27
42067;BME280;27734;47.028;28.820;2023-07-22T01:30:55;100134.74;;;23.72;56.51
42067;BME280;27734;47.028;28.820;2023-07-22T01:33:23;100144.58;;;23.71;56.34
42067;BME280;27734;47.028;28.820;2023-07-22T01:35:54;100125.00;;;23.69;56.37
42067;BME280;27734;47.028;28.820;2023-07-22T01:38:23;100136.63;;;23.68;56.27
42067;BME280;27734;47.028;28.820;2023-07-22T01:40:51;100136.66;;;23.66;56.40
42067;BME280;27734;47.028;28.820;2023-07-22T01:43:20;100133.08;;;23.67;56.65
42067;BME280;27734;47.028;28.820;2023-07-22T01:45:49;100130.39;;;23.67;56.52
42067;BME280;27734;47.028;28.820;2023-07-22T01:48:18;100125.95;;;23.66;56.83
42067;BME280;27734;47.028;28.820;2023-07-22T01:50:46;100119.72;;;23.66;56.73
42067;BME280;27734;47.028;28.820;2023-07-22T01:53:15;100119.76;;;23.64;56.71
42067;BME280;27734;47.028;28.820;2023-07-22T01:55:44;100122.44;;;23.64;56.84
42067;BME280;27734;47.028;28.820;2023-07-22T01:58:13;100134.99;;;23.62;56.75
42067;BME280;27734;47.028;28.820;2023-07-22T02:00:41;100145.78;;;23.59;57.23
42067;BME280;27734;47.028;28.820;2023-07-22T02:03:10;100149.39;;;23.57;57.07
42067;BME280;27734;47.028;28.820;2023-07-22T02:05:39;100143.20;;;23.55;57.19
42067;BME280;27734;47.028;28.820;2023-07-22T02:08:07;100129.86;;;23.53;57.45
42067;BME280;27734;47.028;28.820;2023-07-22T02:10:36;100133.41;;;23.54;57.21
42067;BME280;27734;47.028;28.820;2023-07-22T02:13:05;100127.18;;;23.53;57.72
42067;BME280;27734;47.028;28.820;2023-07-22T02:15:34;100126.31;;;23.51;57.53
42067;BME280;27734;47.028;28.820;2023-07-22T02:18:03;100130.80;;;23.50;57.89
42067;BME280;27734;47.028;28.820;2023-07-22T02:20:32;100127.32;;;23.47;57.48
42067;BME280;27734;47.028;28.820;2023-07-22T02:23:00;100125.48;;;23.49;57.71
42067;BME280;27734;47.028;28.820;2023-07-22T02:25:29;100126.38;;;23.48;57.78
42067;BME280;27734;47.028;28.820;2023-07-22T02:27:57;100125.52;;;23.47;58.07
42067;BME280;27734;47.028;28.820;2023-07-22T02:30:26;100130.03;;;23.45;58.17
42067;BME280;27734;47.028;28.820;2023-07-22T02:32:55;100132.78;;;23.42;58.28
42067;BME280;27734;47.028;28.820;2023-07-22T02:35:23;100140.81;;;23.42;58.57
42067;BME280;27734;47.028;28.820;2023-07-22T02:37:52;100131.01;;;23.41;58.81
42067;BME280;27734;47.028;28.820;2023-07-22T02:40:21;100138.17;;;23.41;58.63
42067;BME280;27734;47.028;28.820;2023-07-22T02:42:49;100130.17;;;23.39;58.81
42067;BME280;27734;47.028;28.820;2023-07-22T02:45:18;100132.85;;;23.39;58.66
42067;BME280;27734;47.028;28.820;2023-07-22T02:47:46;100137.30;;;23.39;59.54
42067;BME280;27734;47.028;28.820;2023-07-22T02:50:15;100134.63;;;23.39;59.65
42067;BME280;27734;47.028;28.820;2023-07-22T02:52:44;100128.44;;;23.37;59.78
42067;BME280;27734;47.028;28.820;2023-07-22T02:55:15;100122.25;;;23.35;59.89
42067;BME280;27734;47.028;28.820;2023-07-22T02:57:47;100119.57;;;23.35;59.83
42067;BME280;27734;47.028;28.820;2023-07-22T03:00:19;100113.28;;;23.36;60.16
42067;BME280;27734;47.028;28.820;2023-07-22T03:02:52;100107.89;;;23.37;60.56
42067;BME280;27734;47.028;28.820;2023-07-22T03:05:21;100098.92;;;23.40;60.42
42067;BME280;27734;47.028;28.820;2023-07-22T03:07:56;100094.40;;;23.42;60.24
42067;BME280;27734;47.028;28.820;2023-07-22T03:10:26;100079.20;;;23.44;60.37
42067;BME280;27734;47.028;28.820;2023-07-22T03:12:57;100068.41;;;23.47;60.82
42067;BME280;27734;47.028;28.820;2023-07-22T03:15:27;100073.70;;;23.50;60.61
42067;BME280;27734;47.028;28.820;2023-07-22T03:17:56;100073.63;;;23.53;60.70
42067;BME280;27734;47.028;28.820;2023-07-22T03:20:27;100066.42;;;23.55;60.51
42067;BME280;27734;47.028;28.820;2023-07-22T03:22:55;100070.80;;;23.59;60.70
42067;BME280;27734;47.028;28.820;2023-07-22T03:25:24;100063.66;;;23.58;60.50
42067;BME280;27734;47.028;28.820;2023-07-22T03:27:52;100066.30;;;23.60;60.60
42067;BME280;27734;47.028;28.820;2023-07-22T03:30:22;100068.98;;;23.60;60.82
42067;BME280;27734;47.028;28.820;2023-07-22T03:32:51;100062.72;;;23.61;60.93
42067;BME280;27734;47.028;28.820;2023-07-22T03:35:19;100066.23;;;23.63;60.83
42067;BME280;27734;47.028;28.820;2023-07-22T03:37:48;100072.45;;;23.63;61.04
42067;BME280;27734;47.028;28.820;2023-07-22T03:40:16;100076.08;;;23.62;61.05
42067;BME280;27734;47.028;28.820;2023-07-22T03:42:49;100071.59;;;23.63;61.20
42067;BME280;27734;47.028;28.820;2023-07-22T03:45:18;100072.53;;;23.60;61.04
42067;BME280;27734;47.028;28.820;2023-07-22T03:47:52;100070.80;;;23.59;61.28
42067;BME280;27734;47.028;28.820;2023-07-22T03:50:22;100078.83;;;23.59;61.60
42067;BME280;27734;47.028;28.820;2023-07-22T03:52:50;100084.22;;;23.58;61.92
42067;BME280;27734;47.028;28.820;2023-07-22T03:55:19;100086.86;;;23.59;61.68
42067;BME280;27734;47.028;28.820;2023-07-22T03:57:48;100088.60;;;23.60;61.79
42067;BME280;27734;47.028;28.820;2023-07-22T04:00:17;100099.23;;;23.63;61.69
42067;BME280;27734;47.028;28.820;2023-07-22T04:02:46;100092.14;;;23.62;62.03
42067;BME280;27734;47.028;28.820;2023-07-22T04:05:16;100112.66;;;23.62;61.96
42067;BME280;27734;47.028;28.820;2023-07-22T04:07:46;100118.89;;;23.64;62.01
42067;BME280;27734;47.028;28.820;2023-07-22T04:10:14;100124.20;;;23.65;61.99
42067;BME280;27734;47.028;28.820;2023-07-22T04:12:43;100137.53;;;23.68;61.97
42067;BME280;27734;47.028;28.820;2023-07-22T04:15:11;100133.00;;;23.71;61.81
42067;BME280;27734;47.028;28.820;2023-07-22T04:17:40;100119.53;;;23.74;62.31
42067;BME280;27734;47.028;28.820;2023-07-22T04:20:11;100117.61;;;23.79;62.07
42067;BME280;27734;47.028;28.820;2023-07-22T04:22:39;100114.81;;;23.85;62.25
42067;BME280;27734;47.028;28.820;2023-07-22T04:25:09;100123.61;;;23.90;62.08
42067;BME280;27734;47.028;28.820;2023-07-22T04:27:38;100121.75;;;23.94;62.91
42067;BME280;27734;47.028;28.820;2023-07-22T04:30:08;100113.55;;;24.00;62.71
42067;BME280;27734;47.028;28.820;2023-07-22T04:32:37;100117.94;;;24.02;63.11
42067;BME280;27734;47.028;28.820;2023-07-22T04:35:08;100120.66;;;24.01;63.00
42067;BME280;27734;47.028;28.820;2023-07-22T04:37:37;100113.59;;;23.98;63.65
42067;BME280;27734;47.028;28.820;2023-07-22T04:40:08;100107.30;;;23.99;63.77
42067;BME280;27734;47.028;28.820;2023-07-22T04:42:43;100112.57;;;24.02;63.96
42067;BME280;27734;47.028;28.820;2023-07-22T04:45:12;100100.91;;;24.05;63.80
42067;BME280;27734;47.028;28.820;2023-07-22T04:47:41;100098.19;;;24.07;64.03
42067;BME280;27734;47.028;28.820;2023-07-22T04:50:12;100091.02;;;24.07;63.97
42067;BME280;27734;47.028;28.820;2023-07-22T04:52:42;100094.59;;;24.08;64.25
42067;BME280;27734;47.028;28.820;2023-07-22T04:55:12;100098.97;;;24.10;63.89
42067;BME280;27734;47.028;28.820;2023-07-22T04:57:41;100101.66;;;24.10;64.04
42067;BME280;27734;47.028;28.820;2023-07-22T05:00:11;100091.84;;;24.11;63.78
42067;BME280;27734;47.028;28.820;2023-07-22T05:02:42;100092.70;;;24.11;64.26
42067;BME280;27734;47.028;28.820;2023-07-22T05:05:11;100084.66;;;24.11;64.21
42067;BME280;27734;47.028;28.820;2023-07-22T05:07:40;100082.85;;;24.12;64.14
42067;BME280;27734;47.028;28.820;2023-07-22T05:10:10;100074.81;;;24.12;64.19
42067;BME280;27734;47.028;28.820;2023-07-22T05:12:40;100062.36;;;24.11;64.10
42067;BME280;27734;47.028;28.820;2023-07-22T05:15:11;100052.50;;;24.11;64.26
42067;BME280;27734;47.028;28.820;2023-07-22T05:17:39;100047.06;;;24.14;64.16
42067;BME280;27734;47.028;28.820;2023-07-22T05:20:09;100046.19;;;24.14;64.51
42067;BME280;27734;47.028;28.820;2023-07-22T05:22:38;100039.88;;;24.15;64.26
42067;BME280;27734;47.028;28.820;2023-07-22T05:25:08;100029.12;;;24.16;64.39
42067;BME280;27734;47.028;28.820;2023-07-22T05:27:39;100027.34;;;24.17;64.57
42067;BME280;27734;47.028;28.820;2023-07-22T05:30:09;100022.80;;;24.19;64.68
42067;BME280;27734;47.028;28.820;2023-07-22T05:32:38;100014.59;;;24.25;65.01
42067;BME280;27734;47.028;28.820;2023-07-22T05:35:08;100018.88;;;24.31;64.68
42067;BME280;27734;47.028;28.820;2023-07-22T05:37:36;100017.79;;;24.38;64.81
42067;BME280;27734;47.028;28.820;2023-07-22T05:40:08;100018.48;;;24.45;64.62
42067;BME280;27734;47.028;28.820;2023-07-22T05:42:36;100019.98;;;24.55;64.66
42067;BME280;27734;47.028;28.820;2023-07-22T05:45:06;100011.70;;;24.64;64.91
42067;BME280;27734;47.028;28.820;2023-07-22T05:47:35;100011.52;;;24.70;64.86
42067;BME280;27734;47.028;28.820;2023-07-22T05:50:06;100006.83;;;24.77;64.83
42067;BME280;27734;47.028;28.820;2023-07-22T05:52:34;100006.73;;;24.80;64.39
42067;BME280;27734;47.028;28.820;2023-07-22T05:55:04;100011.09;;;24.84;64.42
42067;BME280;27734;47.028;28.820;2023-07-22T05:57:33;100018.14;;;24.87;64.41
42067;BME280;27734;47.028;28.820;2023-07-22T06:00:01;100005.58;;;24.89;64.20
42067;BME280;27734;47.028;28.820;2023-07-22T06:02:40;100007.08;;;24.98;64.27
42067;BME280;27734;47.028;28.820;2023-07-22T06:05:09;100001.47;;;25.05;64.18
42067;BME280;27734;47.028;28.820;2023-07-22T06:07:37;99998.48;;;25.15;64.19
42067;BME280;27734;47.028;28.820;2023-07-22T06:10:08;100022.45;;;25.21;64.80
42067;BME280;27734;47.028;28.820;2023-07-22T06:12:37;100026.08;;;25.20;64.68
42067;BME280;27734;47.028;28.820;2023-07-22T06:15:07;100020.66;;;25.21;64.58
42067;BME280;27734;47.028;28.820;2023-07-22T06:17:36;100008.11;;;25.22;64.78
42067;BME280;27734;47.028;28.820;2023-07-22T06:20:08;100017.08;;;25.21;64.86
42067;BME280;27734;47.028;28.820;2023-07-22T06:22:36;100009.03;;;25.21;65.50
42067;BME280;27734;47.028;28.820;2023-07-22T06:25:06;100005.63;;;25.16;65.92
42067;BME280;27734;47.028;28.820;2023-07-22T06:27:35;99997.81;;;25.08;67.49
42067;BME280;27734;47.028;28.820;2023-07-22T06:30:06;99993.70;;;24.96;67.49
42067;BME280;27734;47.028;28.820;2023-07-22T06:32:36;99974.39;;;24.85;67.94
42067;BME280;27734;47.028;28.820;2023-07-22T06:35:06;99946.03;;;24.76;68.09
42067;BME280;27734;47.028;28.820;2023-07-22T06:37:35;99930.02;;;24.74;68.27
42067;BME280;27734;47.028;28.820;2023-07-22T06:40:06;99912.20;;;24.72;68.73
42067;BME280;27734;47.028;28.820;2023-07-22T06:42:38;99911.44;;;24.68;68.93
42067;BME280;27734;47.028;28.820;2023-07-22T06:45:08;99908.91;;;24.64;69.40
42067;BME280;27734;47.028;28.820;2023-07-22T06:47:37;99912.55;;;24.61;69.52
42067;BME280;27734;47.028;28.820;2023-07-22T06:50:07;99925.09;;;24.61;69.82
42067;BME280;27734;47.028;28.820;2023-07-22T06:52:35;99942.88;;;24.63;69.76
42067;BME280;27734;47.028;28.820;2023-07-22T06:55:05;99948.95;;;24.70;69.76
42067;BME280;27734;47.028;28.820;2023-07-22T06:57:34;99955.91;;;24.75;70.29
42067;BME280;27734;47.028;28.820;2023-07-22T07:00:03;99949.33;;;24.86;70.14
42067;BME280;27734;47.028;28.820;2023-07-22T07:02:32;99947.12;;;24.99;70.31
42067;BME280;27734;47.028;28.820;2023-07-22T07:05:01;99950.37;;;25.08;70.03
42067;BME280;27734;47.028;28.820;2023-07-22T07:07:30;99960.14;;;25.11;69.96
42067;BME280;27734;47.028;28.820;2023-07-22T07:10:00;99944.70;;;25.18;70.11
42067;BME280;27734;47.028;28.820;2023-07-22T07:12:29;99942.55;;;25.29;70.01
42067;BME280;27734;47.028;28.820;2023-07-22T07:14:57;99951.03;;;25.43;69.94
42067;BME280;27734;47.028;28.820;2023-07-22T07:17:26;99949.72;;;25.55;70.12
42067;BME280;27734;47.028;28.820;2023-07-22T07:19:55;99950.50;;;25.59;69.90
42067;BME280;27734;47.028;28.820;2023-07-22T07:22:23;99928.69;;;25.68;69.73
42067;BME280;27734;47.028;28.820;2023-07-22T07:24:52;99933.73;;;25.77;69.66
42067;BME280;27734;47.028;28.820;2023-07-22T07:27:20;99941.31;;;25.90;69.46
42067;BME280;27734;47.028;28.820;2023-07-22T07:29:49;99936.25;;;26.07;69.60
42067;BME280;27734;47.028;28.820;2023-07-22T07:32:17;99940.05;;;26.25;68.48
42067;BME280;27734;47.028;28.820;2023-07-22T07:34:46;99944.77;;;26.42;68.26
42067;BME280;27734;47.028;28.820;2023-07-22T07:37:15;99939.48;;;26.63;68.49
42067;BME280;27734;47.028;28.820;2023-07-22T07:39:43;99934.85;;;26.90;67.91
42067;BME280;27734;47.028;28.820;2023-07-22T07:42:14;99931.63;;;27.24;66.61
42067;BME280;27734;47.028;28.820;2023-07-22T07:44:43;99934.91;;;27.53;66.47
42067;BME280;27734;47.028;28.820;2023-07-22T07:47:11;99920.20;;;27.81;65.35
42067;BME280;27734;47.028;28.820;2023-07-22T07:49:40;99922.34;;;28.14;65.20
42067;BME280;27734;47.028;28.820;2023-07-22T07:52:08;99918.78;;;28.32;63.03
42067;BME280;27734;47.028;28.820;2023-07-22T07:54:37;99924.39;;;28.28;60.95
42067;BME280;27734;47.028;28.820;2023-07-22T07:57:06;99929.57;;;28.32;61.40
42067;BME280;27734;47.028;28.820;2023-07-22T07:59:35;99925.87;;;28.35;60.86
42067;BME280;27734;47.028;28.820;2023-07-22T08:02:04;99912.95;;;28.23;58.40
42067;BME280;27734;47.028;28.820;2023-07-22T08:04:36;99918.48;;;28.20;58.03
42067;BME280;27734;47.028;28.820;2023-07-22T08:07:06;99925.43;;;28.25;57.66
42067;BME280;27734;47.028;28.820;2023-07-22T08:09:35;99926.22;;;28.46;57.05
42067;BME280;27734;47.028;28.820;2023-07-22T08:12:05;99917.69;;;28.75;57.13
42067;BME280;27734;47.028;28.820;2023-07-22T08:14:33;99924.70;;;28.79;55.83
42067;BME280;27734;47.028;28.820;2023-07-22T08:17:02;99932.28;;;28.90;55.41
42067;BME280;27734;47.028;28.820;2023-07-22T08:19:31;99927.53;;;29.12;55.63
42067;BME280;27734;47.028;28.820;2023-07-22T08:22:00;99938.10;;;29.36;55.58
42067;BME280;27734;47.028;28.820;2023-07-22T08:24:28;99933.55;;;29.54;54.57
42067;BME280;27734;47.028;28.820;2023-07-22T08:26:57;99915.09;;;29.62;53.50
42067;BME280;27734;47.028;28.820;2023-07-22T08:29:26;99931.16;;;29.65;54.00
42067;BME280;27734;47.028;28.820;2023-07-22T08:31:54;99922.72;;;29.71;53.67
42067;BME280;27734;47.028;28.820;2023-07-22T08:34:23;99928.24;;;29.87;53.44
42067;BME280;27734;47.028;28.820;2023-07-22T08:36:54;99920.25;;;30.02;52.99
42067;BME280;27734;47.028;28.820;2023-07-22T08:39:23;99927.27;;;30.22;52.57
42067;BME280;27734;47.028;28.820;2023-07-22T08:41:52;99927.84;;;30.44;52.32
42067;BME280;27734;47.028;28.820;2023-07-22T08:44:26;99913.44;;;30.60;51.72
42067;BME280;27734;47.028;28.820;2023-07-22T08:46:59;99912.30;;;30.80;51.14
42067;BME280;27734;47.028;28.820;2023-07-22T08:49:28;99901.44;;;30.96;51.08
42067;BME280;27734;47.028;28.820;2023-07-22T08:51:57;99916.64;;;31.14;50.89
42067;BME280;27734;47.028;28.820;2023-07-22T08:54:26;99903.75;;;31.34;50.17
42067;BME280;27734;47.028;28.820;2023-07-22T08:56:55;99900.95;;;31.35;49.19
42067;BME280;27734;47.028;28.820;2023-07-22T08:59:24;99898.97;;;31.53;49.32
42067;BME280;27734;47.028;28.820;2023-07-22T09:01:53;99903.27;;;31.72;49.43
42067;BME280;27734;47.028;28.820;2023-07-22T09:04:25;99896.09;;;31.71;49.14
42067;BME280;27734;47.028;28.820;2023-07-22T09:06:54;99912.55;;;31.68;48.89
42067;BME280;27734;47.028;28.820;2023-07-22T09:09:23;99899.49;;;31.60;47.84
42067;BME280;27734;47.028;28.820;2023-07-22T09:11:53;99896.41;;;31.50;48.19
42067;BME280;27734;47.028;28.820;2023-07-22T09:14:23;99903.44;;;31.54;47.92
42067;BME280;27734;47.028;28.820;2023-07-22T09:16:52;99908.69;;;31.72;48.02
42067;BME280;27734;47.028;28.820;2023-07-22T09:19:23;99886.42;;;31.81;47.47
42067;BME280;27734;47.028;28.820;2023-07-22T09:21:52;99896.02;;;31.87;47.61
42067;BME280;27734;47.028;28.820;2023-07-22T09:24:24;99891.08;;;31.94;47.61
42067;BME280;27734;47.028;28.820;2023-07-22T09:26:54;99883.51;;;31.99;46.72
42067;BME280;27734;47.028;28.820;2023-07-22T09:29:33;99871.91;;;32.11;46.37
42067;BME280;27734;47.028;28.820;2023-07-22T09:32:03;99881.22;;;32.21;46.03
42067;BME280;27734;47.028;28.820;2023-07-22T09:34:31;99864.23;;;32.18;44.86
42067;BME280;27734;47.028;28.820;2023-07-22T09:37:00;99861.92;;;32.26;44.44
42067;BME280;27734;47.028;28.820;2023-07-22T09:39:29;99867.01;;;32.45;44.84
42067;BME280;27734;47.028;28.820;2023-07-22T09:41:58;99874.95;;;32.48;44.03
42067;BME280;27734;47.028;28.820;2023-07-22T09:44:30;99878.81;;;32.58;43.84
42067;BME280;27734;47.028;28.820;2023-07-22T09:47:06;99872.67;;;32.69;43.67
42067;BME280;27734;47.028;28.820;2023-07-22T09:49:40;99880.64;;;32.58;43.25
42067;BME280;27734;47.028;28.820;2023-07-22T09:52:11;99884.95;;;32.33;42.44
42067;BME280;27734;47.028;28.820;2023-07-22T09:54:47;99878.89;;;32.15;42.49
42067;BME280;27734;47.028;28.820;2023-07-22T09:57:19;99867.33;;;31.97;42.39
42067;BME280;27734;47.028;28.820;2023-07-22T09:59:50;99875.28;;;31.86;42.58
42067;BME280;27734;47.028;28.820;2023-07-22T10:02:21;99874.80;;;31.79;42.59
42067;BME280;27734;47.028;28.820;2023-07-22T10:04:52;99877.52;;;31.79;42.85
42067;BME280;27734;47.028;28.820;2023-07-22T10:07:22;99875.57;;;31.67;42.64
42067;BME280;27734;47.028;28.820;2023-07-22T10:09:54;99876.33;;;31.54;42.83
42067;BME280;27734;47.028;28.820;2023-07-22T10:12:24;99865.25;;;31.43;43.07
42067;BME280;27734;47.028;28.820;2023-07-22T10:14:53;99860.50;;;31.47;43.22
42067;BME280;27734;47.028;28.820;2023-07-22T10:17:22;99857.25;;;31.56;43.18
42067;BME280;27734;47.028;28.820;2023-07-22T10:19:51;99851.26;;;31.65;43.27
42067;BME280;27734;47.028;28.820;2023-07-22T10:22:21;99857.55;;;31.66;42.58
42067;BME280;27734;47.028;28.820;2023-07-22T10:24:50;99848.16;;;31.71;42.64
42067;BME280;27734;47.028;28.820;2023-07-22T10:27:20;99851.45;;;31.77;42.54
42067;BME280;27734;47.028;28.820;2023-07-22T10:29:50;99850.11;;;31.84;42.50
42067;BME280;27734;47.028;28.820;2023-07-22T10:32:18;99861.72;;;31.86;42.61
42067;BME280;27734;47.028;28.820;2023-07-22T10:34:47;99855.43;;;31.85;42.58
42067;BME280;27734;47.028;28.820;2023-07-22T10:37:18;99849.23;;;31.98;42.79
42067;BME280;27734;47.028;28.820;2023-07-22T10:39:49;99864.92;;;32.07;41.88
42067;BME280;27734;47.028;28.820;2023-07-22T10:42:25;99848.84;;;32.04;41.92
42067;BME280;27734;47.028;28.820;2023-07-22T10:44:54;99844.47;;;32.16;42.39
42067;BME280;27734;47.028;28.820;2023-07-22T10:47:35;99839.91;;;32.16;42.03
42067;BME280;27734;47.028;28.820;2023-07-22T10:50:09;99839.14;;;32.14;41.46
42067;BME280;27734;47.028;28.820;2023-07-22T10:52:44;99837.09;;;32.18;41.57
42067;BME280;27734;47.028;28.820;2023-07-22T10:55:18;99844.34;;;32.32;41.23
42067;BME280;27734;47.028;28.820;2023-07-22T10:57:52;99851.13;;;32.39;41.41
42067;BME280;27734;47.028;28.820;2023-07-22T11:00:21;99845.89;;;32.36;41.09
42067;BME280;27734;47.028;28.820;2023-07-22T11:03:10;99847.34;;;32.41;40.65
42067;BME280;27734;47.028;28.820;2023-07-22T11:05:51;99845.84;;;32.50;40.14
42067;BME280;27734;47.028;28.820;2023-07-22T11:08:35;99844.68;;;32.54;39.77
42067;BME280;27734;47.028;28.820;2023-07-22T11:11:05;99849.43;;;32.65;40.30
42067;BME280;27734;47.028;28.820;2023-07-22T11:13:38;99849.33;;;32.67;40.05
42067;BME280;27734;47.028;28.820;2023-07-22T11:16:11;99849.23;;;32.68;40.04
42067;BME280;27734;47.028;28.820;2023-07-22T11:18:40;99853.36;;;32.74;39.84
42067;BME280;27734;47.028;28.820;2023-07-22T11:21:10;99852.80;;;32.69;39.44
42067;BME280;27734;47.028;28.820;2023-07-22T11:23:39;99852.80;;;32.69;39.39
42067;BME280;27734;47.028;28.820;2023-07-22T11:26:07;99854.66;;;32.68;39.59
42067;BME280;27734;47.028;28.820;2023-07-22T11:28:36;99857.48;;;32.67;38.42
42067;BME280;27734;47.028;28.820;2023-07-22T11:31:06;99860.19;;;32.67;38.66
42067;BME280;27734;47.028;28.820;2023-07-22T11:33:41;99860.75;;;32.72;38.50
42067;BME280;27734;47.028;28.820;2023-07-22T11:36:12;99867.62;;;32.77;38.57
42067;BME280;27734;47.028;28.820;2023-07-22T11:38:41;99856.58;;;32.66;38.00
42067;BME280;27734;47.028;28.820;2023-07-22T11:41:09;99869.88;;;32.56;37.60
42067;BME280;27734;47.028;28.820;2023-07-22T11:43:38;99861.32;;;32.21;37.34
42067;BME280;27734;47.028;28.820;2023-07-22T11:46:07;99879.75;;;32.16;37.03
42067;BME280;27734;47.028;28.820;2023-07-22T11:48:36;99868.69;;;32.04;36.84
42067;BME280;27734;47.028;28.820;2023-07-22T11:51:05;99878.19;;;31.83;37.57
42067;BME280;27734;47.028;28.820;2023-07-22T11:53:35;99856.68;;;31.80;37.64
42067;BME280;27734;47.028;28.820;2023-07-22T11:56:04;99855.34;;;31.87;38.05
42067;BME280;27734;47.028;28.820;2023-07-22T11:58:33;99854.85;;;31.95;38.02
42067;BME280;27734;47.028;28.820;2023-07-22T12:01:04;99856.52;;;32.12;38.06
42067;BME280;27734;47.028;28.820;2023-07-22T12:03:33;99855.20;;;32.32;37.80
42067;BME280;27734;47.028;28.820;2023-07-22T12:06:06;99857.41;;;32.39;37.58
42067;BME280;27734;47.028;28.820;2023-07-22T12:08:35;99853.23;;;32.48;37.86
42067;BME280;27734;47.028;28.820;2023-07-22T12:11:04;99860.88;;;32.56;38.04
42067;BME280;27734;47.028;28.820;2023-07-22T12:13:37;99870.57;;;32.60;38.51
42067;BME280;27734;47.028;28.820;2023-07-22T12:16:06;99854.39;;;32.44;38.64
42067;BME280;27734;47.028;28.820;2023-07-22T12:18:44;99874.50;;;32.27;38.93
42067;BME280;27734;47.028;28.820;2023-07-22T12:21:13;99865.98;;;32.04;39.33
42067;BME280;27734;47.028;28.820;2023-07-22T12:23:43;99872.19;;;31.92;39.94
42067;BME280;27734;47.028;28.820;2023-07-22T12:26:11;99894.94;;;31.75;40.04
42067;BME280;27734;47.028;28.820;2023-07-22T12:28:40;99887.47;;;31.64;40.07
42067;BME280;27734;47.028;28.820;2023-07-22T12:31:09;99898.17;;;31.51;40.49
42067;BME280;27734;47.028;28.820;2023-07-22T12:33:37;99892.11;;;31.32;40.73
42067;BME280;27734;47.028;28.820;2023-07-22T12:36:06;99895.83;;;31.15;41.07
42067;BME280;27734;47.028;28.820;2023-07-22T12:38:35;99885.75;;;31.03;41.03
42067;BME280;27734;47.028;28.820;2023-07-22T12:41:04;99892.21;;;31.00;41.41
42067;BME280;27734;47.028;28.820;2023-07-22T12:43:32;99892.72;;;30.91;41.45
42067;BME280;27734;47.028;28.820;2023-07-22T12:46:01;99881.61;;;30.95;41.63
42067;BME280;27734;47.028;28.820;2023-07-22T12:48:29;99882.86;;;31.06;41.71
42067;BME280;27734;47.028;28.820;2023-07-22T12:50:58;99878.62;;;31.16;41.79
42067;BME280;27734;47.028;28.820;2023-07-22T12:53:27;99879.55;;;31.31;41.71
42067;BME280;27734;47.028;28.820;2023-07-22T12:55:56;99888.84;;;31.41;41.53
42067;BME280;27734;47.028;28.820;2023-07-22T12:58:24;99878.00;;;31.41;41.25